Shipman, Virginia
Current Conditions -  °F | °C
As of 10:15 AM on Friday 31 Oct 2014 (Local Time) from KW13 Reporting Station
Scattered Clouds Scattered Clouds  
Wind Chill: 44°   Ceiling: Unl
Heat Index: 44°   Visibility: 10mi
Dew Point: 35°   Wind: 3mph
Humidity: 71%   Direction: 330°NNW
Pressure: 29.96"   Gusts: NA
Location:  37.72°N, 78.84°W
Report Text: KW13 311415Z AUTO 33003KT 10SM SCT040 07/02 A2996 RMK AO1 T00680019
Loading
Personal Weather Stations






























Interactive Weather Map
Tropical Storm Tracking
New forecast layout! Learn more

10-Day Weather Forecast

Advertisements
Track Severe Weather on mobile